Time;durP1;ratioP1;P1;durP2;ratioP2;P2;SDS_P1;SDS_P2;PMS_P1;PMS_P2;Temp;Humidity;BMP_temperature;BMP_pressure;BME280_temperature;BME280_humidity;BME280_pressure;Samples;Min_cycle;Max_cycle;Signal;HPM_P1;HPM_P2
2023/05/26 00:01:47;;;;;;;7.53;1.92;;;11.00;99.90;;;;;;5033181;28;20104;-43
2023/05/26 00:04:18;;;;;;;13.30;2.42;;;11.10;99.90;;;;;;5033264;28;20033;-44
2023/05/26 00:06:46;;;;;;;4.07;1.67;;;11.10;99.90;;;;;;5033001;28;20032;-46
2023/05/26 00:09:14;;;;;;;8.02;2.30;;;11.00;99.90;;;;;;5033360;28;20038;-48
2023/05/26 00:11:41;;;;;;;7.25;2.22;;;11.00;99.90;;;;;;5033263;28;20080;-51
2023/05/26 00:14:06;;;;;;;1.23;0.68;;;11.00;99.90;;;;;;5033103;28;20065;-48
2023/05/26 00:16:32;;;;;;;3.40;1.27;;;10.90;99.90;;;;;;5033102;28;20464;-51
2023/05/26 00:18:57;;;;;;;3.38;1.52;;;10.90;99.90;;;;;;5031786;28;20030;-45
2023/05/26 00:21:23;;;;;;;10.48;2.13;;;10.80;99.90;;;;;;5031728;28;20021;-48
2023/05/26 00:23:48;;;;;;;4.63;2.22;;;10.90;99.90;;;;;;5031877;28;20033;-48
2023/05/26 00:26:14;;;;;;;9.18;1.52;;;10.80;99.90;;;;;;5032892;28;20045;-47
2023/05/26 00:28:40;;;;;;;2.63;1.23;;;10.80;99.90;;;;;;5032806;28;20025;-56
2023/05/26 00:31:05;;;;;;;5.05;1.27;;;10.80;99.90;;;;;;5032849;28;20025;-54
2023/05/26 00:33:31;;;;;;;3.47;1.48;;;10.80;99.90;;;;;;5031457;28;20080;-49
2023/05/26 00:35:56;;;;;;;4.82;1.90;;;10.70;99.90;;;;;;5032622;28;20032;-52
2023/05/26 00:38:22;;;;;;;3.53;1.40;;;10.70;99.90;;;;;;5032581;28;20488;-45
2023/05/26 00:40:49;;;;;;;3.40;1.08;;;10.70;99.90;;;;;;5032410;28;20031;-52
2023/05/26 00:43:14;;;;;;;2.78;1.83;;;10.60;99.90;;;;;;5032607;28;20022;-57
2023/05/26 00:45:40;;;;;;;1.95;0.55;;;10.50;99.90;;;;;;5032593;28;20097;-55
2023/05/26 00:48:06;;;;;;;11.35;1.02;;;10.50;99.90;;;;;;5032442;28;20387;-51
2023/05/26 00:50:31;;;;;;;7.63;2.42;;;10.50;99.90;;;;;;5032427;28;20083;-60
2023/05/26 00:52:58;;;;;;;2.78;1.38;;;10.50;99.90;;;;;;5032347;28;20032;-46
2023/05/26 00:55:24;;;;;;;6.78;1.02;;;10.40;99.90;;;;;;5032461;28;20059;-47
2023/05/26 00:57:50;;;;;;;3.63;1.65;;;10.40;99.90;;;;;;5032211;28;20061;-46
2023/05/26 01:00:17;;;;;;;12.45;2.10;;;10.30;99.90;;;;;;5032374;28;20032;-48
2023/05/26 01:02:46;;;;;;;3.80;1.50;;;10.30;99.90;;;;;;5031997;28;20025;-44
2023/05/26 01:05:15;;;;;;;2.08;0.65;;;10.30;99.90;;;;;;5031005;28;20080;-47
2023/05/26 01:07:42;;;;;;;6.97;1.25;;;10.10;99.90;;;;;;5032031;28;20500;-57
2023/05/26 01:10:08;;;;;;;4.18;2.10;;;10.20;99.90;;;;;;5031975;28;20035;-46
2023/05/26 01:12:57;;;;;;;6.88;1.30;;;10.20;99.90;;;;;;5031906;28;20087;-51
2023/05/26 01:15:31;;;;;;;2.72;0.57;;;10.10;99.90;;;;;;5031839;28;20104;-57
2023/05/26 01:18:10;;;;;;;1.00;0.85;;;10.10;99.90;;;;;;5031973;28;20036;-58
2023/05/26 01:20:45;;;;;;;3.47;1.00;;;10.10;99.90;;;;;;5031992;28;20064;-57
2023/05/26 01:23:35;;;;;;;5.88;2.35;;;10.00;99.90;;;;;;5031629;28;20029;-56
2023/05/26 01:26:01;;;;;;;4.43;0.80;;;10.00;99.90;;;;;;5032074;28;20025;-45
2023/05/26 01:28:29;;;;;;;5.10;1.08;;;9.90;99.90;;;;;;5030408;28;20451;-56
2023/05/26 01:30:57;;;;;;;5.47;1.95;;;9.90;99.90;;;;;;5031126;28;20104;-48
2023/05/26 01:33:23;;;;;;;2.08;1.20;;;9.90;99.90;;;;;;5031397;28;20022;-55
2023/05/26 01:35:48;;;;;;;2.72;1.67;;;9.80;99.90;;;;;;5031456;28;20035;-47
2023/05/26 01:38:14;;;;;;;9.68;1.75;;;9.80;99.90;;;;;;5031465;28;20022;-45
2023/05/26 01:40:43;;;;;;;1.70;1.42;;;9.80;99.90;;;;;;5031667;28;20037;-53
2023/05/26 01:43:16;;;;;;;6.75;1.45;;;9.70;99.90;;;;;;5031672;28;20025;-51
2023/05/26 01:45:52;;;;;;;15.50;1.92;;;9.70;99.90;;;;;;5031407;28;20026;-50
2023/05/26 01:48:18;;;;;;;9.52;2.10;;;9.70;99.90;;;;;;5031166;28;20106;-45
2023/05/26 01:50:51;;;;;;;4.68;1.60;;;9.60;99.90;;;;;;5031152;28;20025;-49
2023/05/26 01:53:20;;;;;;;4.63;1.60;;;9.60;99.90;;;;;;5031236;28;20550;-54
2023/05/26 01:55:50;;;;;;;4.20;1.60;;;9.50;99.90;;;;;;5031358;28;20038;-51
2023/05/26 01:58:16;;;;;;;15.52;1.13;;;9.50;99.90;;;;;;5031344;28;20026;-53
2023/05/26 02:00:47;;;;;;;2.90;1.45;;;9.50;99.90;;;;;;5031069;28;20040;-45
2023/05/26 02:03:13;;;;;;;2.22;0.98;;;9.50;99.90;;;;;;5030696;28;20048;-45
2023/05/26 02:05:39;;;;;;;5.28;2.05;;;9.40;99.90;;;;;;5031041;28;20487;-45
2023/05/26 02:08:05;;;;;;;10.85;3.13;;;9.40;99.90;;;;;;5030786;28;20041;-45
2023/05/26 02:10:30;;;;;;;2.15;1.15;;;9.40;99.90;;;;;;5031128;28;20021;-53
2023/05/26 02:12:56;;;;;;;4.85;1.55;;;9.40;99.90;;;;;;5030970;28;20104;-52
2023/05/26 02:15:22;;;;;;;2.20;1.02;;;9.30;99.90;;;;;;5030803;28;20017;-52
2023/05/26 02:17:48;;;;;;;8.95;2.08;;;9.30;99.90;;;;;;5030623;28;20079;-46
2023/05/26 02:20:15;;;;;;;2.65;1.30;;;9.20;99.90;;;;;;5028435;28;20034;-43
2023/05/26 02:22:41;;;;;;;0.77;0.63;;;9.20;99.90;;;;;;5030016;28;20504;-55
2023/05/26 02:25:07;;;;;;;2.33;0.63;;;9.20;99.90;;;;;;5029731;28;20029;-51
2023/05/26 02:27:32;;;;;;;1.05;0.90;;;9.20;99.90;;;;;;5030669;28;20429;-47
2023/05/26 02:29:58;;;;;;;1.63;1.02;;;9.10;99.90;;;;;;5030779;28;20071;-45
2023/05/26 02:32:23;;;;;;;3.65;1.00;;;9.10;99.90;;;;;;5030586;28;20456;-52
2023/05/26 02:34:50;;;;;;;3.22;1.88;;;9.10;99.90;;;;;;5030751;28;20396;-56
2023/05/26 02:37:17;;;;;;;3.78;1.83;;;9.20;99.90;;;;;;5030494;28;20044;-49
2023/05/26 02:39:43;;;;;;;1.30;0.95;;;9.10;99.90;;;;;;5030816;28;20029;-56
2023/05/26 02:42:08;;;;;;;2.42;1.20;;;9.20;99.90;;;;;;5030693;28;20033;-55
2023/05/26 02:44:34;;;;;;;4.75;1.73;;;9.10;99.90;;;;;;5030399;28;20030;-49
2023/05/26 02:47:00;;;;;;;3.40;1.00;;;9.10;99.90;;;;;;5030463;28;20060;-54
2023/05/26 02:49:25;;;;;;;3.70;2.20;;;9.10;99.90;;;;;;5030616;28;20385;-47
2023/05/26 02:51:51;;;;;;;5.15;1.15;;;9.10;99.90;;;;;;5030569;28;20033;-51
2023/05/26 02:54:16;;;;;;;1.75;1.17;;;9.10;99.90;;;;;;5030359;28;20156;-44
2023/05/26 02:56:42;;;;;;;1.85;0.77;;;9.10;99.90;;;;;;5030622;28;20393;-52
2023/05/26 02:59:08;;;;;;;3.33;1.83;;;9.10;99.90;;;;;;5030423;28;20028;-52
2023/05/26 03:01:33;;;;;;;2.97;1.30;;;8.90;99.90;;;;;;5030121;28;20025;-47
2023/05/26 03:03:59;;;;;;;1.85;1.17;;;8.90;99.90;;;;;;5030279;28;20524;-47
2023/05/26 03:06:24;;;;;;;2.10;1.33;;;8.90;99.90;;;;;;5030445;28;20021;-56
2023/05/26 03:08:50;;;;;;;1.58;1.23;;;8.80;99.90;;;;;;5030544;28;20033;-44
2023/05/26 03:11:16;;;;;;;6.63;1.00;;;8.80;99.90;;;;;;5030441;28;20365;-51
2023/05/26 03:13:41;;;;;;;1.35;0.70;;;8.80;99.90;;;;;;5030539;28;20025;-55
2023/05/26 03:16:07;;;;;;;2.05;0.70;;;8.80;99.90;;;;;;5030252;28;20512;-53
2023/05/26 03:18:33;;;;;;;8.20;0.80;;;8.80;99.90;;;;;;5030305;28;20030;-48
2023/05/26 03:20:59;;;;;;;1.05;0.63;;;8.70;99.90;;;;;;5030163;28;20068;-56
2023/05/26 03:23:24;;;;;;;9.68;2.58;;;8.70;99.90;;;;;;5030131;28;20049;-49
2023/05/26 03:25:50;;;;;;;3.50;1.45;;;8.70;99.90;;;;;;5030181;28;20045;-54
2023/05/26 03:28:16;;;;;;;4.40;1.98;;;8.60;99.90;;;;;;5030082;28;20041;-53
2023/05/26 03:30:41;;;;;;;3.92;1.55;;;8.60;99.90;;;;;;5033882;28;20017;-50
2023/05/26 03:33:07;;;;;;;3.97;1.23;;;8.60;99.90;;;;;;5033626;28;20025;-43
2023/05/26 03:35:33;;;;;;;5.82;2.65;;;8.60;99.90;;;;;;5032299;28;20026;-51
2023/05/26 03:37:59;;;;;;;3.95;1.98;;;8.70;99.90;;;;;;5033659;28;20026;-47
2023/05/26 03:40:24;;;;;;;6.78;2.05;;;8.90;99.90;;;;;;5032529;28;20091;-46
2023/05/26 03:42:50;;;;;;;3.30;0.77;;;8.90;99.90;;;;;;5032492;28;20168;-46
2023/05/26 03:45:16;;;;;;;8.55;1.80;;;8.90;99.90;;;;;;5032668;28;20025;-44
2023/05/26 03:47:42;;;;;;;2.25;2.08;;;8.90;99.90;;;;;;5033557;28;20037;-48
2023/05/26 03:50:09;;;;;;;1.00;0.80;;;8.90;99.90;;;;;;5032139;28;20072;-44
2023/05/26 03:52:35;;;;;;;6.22;2.53;;;9.00;99.90;;;;;;5033440;28;20083;-56
2023/05/26 03:55:01;;;;;;;5.03;1.75;;;9.00;99.90;;;;;;5033347;28;20017;-50
2023/05/26 03:57:27;;;;;;;2.08;1.02;;;9.10;99.90;;;;;;5033531;28;20026;-47
2023/05/26 03:59:52;;;;;;;1.80;1.15;;;9.20;99.90;;;;;;5033081;28;20033;-49
2023/05/26 04:02:19;;;;;;;8.48;1.38;;;9.20;99.90;;;;;;5033268;28;20032;-54
2023/05/26 04:04:45;;;;;;;2.42;0.85;;;9.30;99.90;;;;;;5032350;28;20045;-49
2023/05/26 04:07:11;;;;;;;4.20;1.45;;;9.40;99.90;;;;;;5033154;28;20084;-45
2023/05/26 04:09:37;;;;;;;3.97;2.70;;;9.40;99.90;;;;;;5033147;28;20021;-55
2023/05/26 04:12:03;;;;;;;4.07;1.65;;;9.60;99.90;;;;;;5033181;28;20400;-44
2023/05/26 04:14:29;;;;;;;15.43;3.65;;;9.60;99.90;;;;;;5033071;28;20041;-48
2023/05/26 04:16:54;;;;;;;11.35;1.75;;;9.80;99.90;;;;;;5032936;28;20456;-47
2023/05/26 04:19:20;;;;;;;2.20;1.63;;;9.90;99.90;;;;;;5023635;28;20631;-56
2023/05/26 04:21:46;;;;;;;6.32;1.38;;;10.00;99.90;;;;;;5032720;28;20473;-52
2023/05/26 04:24:11;;;;;;;5.53;0.93;;;10.10;99.90;;;;;;5032483;28;20037;-55
2023/05/26 04:26:37;;;;;;;9.40;1.25;;;10.20;99.90;;;;;;5023194;28;20080;-53
2023/05/26 04:29:03;;;;;;;2.30;1.90;;;10.30;99.90;;;;;;5032660;28;20029;-55
2023/05/26 04:31:29;;;;;;;0.82;0.68;;;10.40;99.90;;;;;;5032950;28;20032;-48
2023/05/26 04:33:58;;;;;;;3.45;1.98;;;10.50;99.90;;;;;;5032999;28;20463;-44
2023/05/26 04:36:24;;;;;;;12.40;2.40;;;10.60;99.90;;;;;;5032721;28;20021;-48
2023/05/26 04:38:51;;;;;;;3.85;1.73;;;10.60;99.90;;;;;;5032556;28;20494;-45
2023/05/26 04:41:18;;;;;;;7.22;2.00;;;10.70;99.90;;;;;;5032509;28;20025;-49
2023/05/26 04:43:44;;;;;;;6.20;1.85;;;10.80;99.90;;;;;;5032591;28;20022;-45
2023/05/26 04:46:11;;;;;;;2.10;1.00;;;10.90;99.90;;;;;;5032581;28;20040;-50
2023/05/26 04:48:37;;;;;;;8.18;2.63;;;10.90;99.90;;;;;;5032402;28;20514;-51
2023/05/26 04:51:04;;;;;;;1.23;0.80;;;11.00;99.90;;;;;;5032395;28;20099;-53
2023/05/26 04:53:30;;;;;;;9.38;1.58;;;11.10;99.90;;;;;;5032375;28;20500;-44
2023/05/26 04:55:58;;;;;;;6.80;1.67;;;11.20;99.90;;;;;;5032386;28;20025;-44
2023/05/26 04:58:23;;;;;;;4.20;1.65;;;11.20;99.90;;;;;;5032322;28;20095;-55
2023/05/26 05:00:50;;;;;;;5.35;1.15;;;11.20;99.90;;;;;;5032340;28;20075;-52
2023/05/26 05:03:16;;;;;;;4.88;2.15;;;11.30;99.90;;;;;;5032252;28;20030;-54
2023/05/26 05:05:41;;;;;;;6.05;2.17;;;11.30;99.90;;;;;;5032230;28;20041;-46
2023/05/26 05:08:07;;;;;;;6.43;1.50;;;11.40;99.90;;;;;;5031904;28;20837;-44
2023/05/26 05:10:32;;;;;;;14.13;1.70;;;11.40;99.90;;;;;;5032179;28;20030;-47
2023/05/26 05:12:59;;;;;;;4.53;1.52;;;11.50;99.90;;;;;;5031790;28;20032;-51
2023/05/26 05:15:24;;;;;;;5.88;1.70;;;11.50;99.90;;;;;;5031976;28;20017;-55
2023/05/26 05:17:50;;;;;;;4.20;0.80;;;11.60;99.90;;;;;;5031931;28;20030;-50
2023/05/26 05:20:16;;;;;;;4.45;1.63;;;11.60;99.90;;;;;;5031958;28;20536;-50
2023/05/26 05:22:41;;;;;;;13.05;1.55;;;11.60;99.90;;;;;;5031918;28;20042;-43
2023/05/26 05:25:08;;;;;;;2.05;1.77;;;11.70;99.90;;;;;;5031639;28;20021;-52
2023/05/26 05:27:33;;;;;;;4.60;1.95;;;11.80;99.90;;;;;;5031800;28;20029;-53
2023/05/26 05:29:59;;;;;;;2.67;1.67;;;11.80;99.90;;;;;;5031675;28;20021;-49
2023/05/26 05:32:25;;;;;;;3.35;1.33;;;11.90;99.90;;;;;;5031448;28;20022;-45
2023/05/26 05:34:50;;;;;;;12.45;1.75;;;12.10;99.90;;;;;;5031510;28;20035;-55
2023/05/26 05:37:16;;;;;;;8.13;1.50;;;12.20;99.90;;;;;;5031439;28;20025;-46
2023/05/26 05:39:42;;;;;;;5.60;1.75;;;12.40;99.90;;;;;;5031680;28;20033;-52
2023/05/26 05:42:07;;;;;;;5.85;1.77;;;12.50;99.90;;;;;;5031416;28;20511;-52
2023/05/26 05:44:33;;;;;;;6.07;1.40;;;12.50;99.90;;;;;;5031518;28;20461;-49
2023/05/26 05:46:58;;;;;;;2.20;1.45;;;12.50;99.90;;;;;;5031446;28;20087;-46
2023/05/26 05:49:24;;;;;;;3.85;1.45;;;12.60;99.90;;;;;;5031175;28;20034;-46
2023/05/26 05:51:50;;;;;;;3.55;1.30;;;12.70;99.90;;;;;;5030927;28;20028;-50
2023/05/26 05:54:15;;;;;;;7.95;1.50;;;12.80;99.90;;;;;;5031247;28;20104;-47
2023/05/26 05:56:41;;;;;;;2.33;1.20;;;13.00;99.90;;;;;;5030755;28;20018;-51
2023/05/26 05:59:06;;;;;;;3.28;1.77;;;13.40;99.90;;;;;;5031475;28;20144;-52
2023/05/26 06:01:32;;;;;;;5.13;2.22;;;13.60;99.90;;;;;;5031118;28;20025;-44
2023/05/26 06:03:58;;;;;;;10.95;3.78;;;13.90;99.90;;;;;;5031007;28;20049;-47
2023/05/26 06:06:23;;;;;;;2.83;1.40;;;14.20;99.90;;;;;;5031007;28;20119;-59
2023/05/26 06:08:49;;;;;;;7.45;1.60;;;14.40;99.90;;;;;;5031202;28;20083;-54
2023/05/26 06:11:15;;;;;;;2.83;1.17;;;14.70;99.90;;;;;;5030859;28;20029;-56
2023/05/26 06:13:40;;;;;;;9.10;2.58;;;15.10;99.90;;;;;;5030827;28;20026;-53
2023/05/26 06:16:06;;;;;;;5.35;1.38;;;15.50;99.90;;;;;;5031075;28;20033;-59
2023/05/26 06:18:32;;;;;;;3.03;0.85;;;15.60;99.90;;;;;;5030799;28;20096;-50
2023/05/26 06:20:57;;;;;;;1.77;0.88;;;15.50;99.90;;;;;;5030852;28;20033;-55
2023/05/26 06:23:23;;;;;;;6.78;1.65;;;15.60;99.90;;;;;;5030422;28;20029;-52
2023/05/26 06:25:49;;;;;;;6.47;1.55;;;16.10;99.90;;;;;;5030750;28;20026;-49
2023/05/26 06:28:15;;;;;;;5.40;1.35;;;16.50;99.90;;;;;;5030815;28;20041;-51
2023/05/26 06:30:41;;;;;;;5.47;1.25;;;16.40;99.90;;;;;;5030832;28;20075;-46
2023/05/26 06:33:06;;;;;;;6.75;1.38;;;15.80;99.90;;;;;;5030673;28;20396;-51
2023/05/26 06:35:32;;;;;;;10.32;1.05;;;15.90;99.90;;;;;;5030603;28;20049;-47
2023/05/26 06:37:57;;;;;;;6.60;1.27;;;16.00;99.90;;;;;;5030518;28;20428;-44
2023/05/26 06:40:23;;;;;;;5.53;1.45;;;15.70;99.90;;;;;;5030303;28;20025;-51
2023/05/26 06:42:49;;;;;;;5.88;1.13;;;16.20;99.90;;;;;;5028941;28;20021;-44
2023/05/26 06:45:14;;;;;;;10.88;1.67;;;16.70;99.90;;;;;;5028207;28;20417;-44
2023/05/26 06:47:40;;;;;;;4.53;0.80;;;16.70;99.90;;;;;;5029603;28;20044;-46
2023/05/26 06:50:06;;;;;;;2.78;1.38;;;16.80;99.90;;;;;;5029851;28;20029;-43
2023/05/26 06:52:32;;;;;;;2.35;1.08;;;16.40;99.90;;;;;;5030378;28;20385;-43
2023/05/26 06:54:57;;;;;;;2.60;1.02;;;16.20;99.90;;;;;;5030281;28;20037;-50
2023/05/26 06:57:23;;;;;;;12.07;1.23;;;16.20;99.90;;;;;;5030396;28;20525;-46
2023/05/26 06:59:49;;;;;;;1.75;0.95;;;16.30;99.90;;;;;;5030219;28;20091;-47
2023/05/26 07:02:14;;;;;;;9.45;1.30;;;16.20;99.90;;;;;;5030335;28;20057;-50
2023/05/26 07:04:41;;;;;;;1.95;0.90;;;16.30;99.90;;;;;;5032015;28;20114;-49
2023/05/26 07:07:07;;;;;;;3.40;0.82;;;16.00;99.90;;;;;;5034173;28;20496;-54
2023/05/26 07:09:33;;;;;;;2.92;0.98;;;16.00;99.90;;;;;;5034065;28;20024;-47
2023/05/26 07:11:58;;;;;;;1.27;0.85;;;16.40;99.90;;;;;;5033776;28;20029;-45
2023/05/26 07:14:24;;;;;;;2.78;0.77;;;16.60;99.90;;;;;;5033877;28;20096;-49
2023/05/26 07:16:50;;;;;;;6.22;0.90;;;16.70;99.90;;;;;;5033766;28;20455;-50
2023/05/26 07:19:15;;;;;;;3.00;0.70;;;17.10;99.90;;;;;;5033489;28;20029;-46
2023/05/26 07:21:41;;;;;;;3.35;1.08;;;17.30;99.90;;;;;;5033955;28;20040;-54
2023/05/26 07:24:07;;;;;;;9.82;1.05;;;17.80;99.90;;;;;;5033540;28;20013;-52
2023/05/26 07:26:32;;;;;;;1.75;0.65;;;18.90;96.80;;;;;;5033802;28;20157;-52
2023/05/26 07:28:58;;;;;;;2.15;0.68;;;19.40;94.40;;;;;;5033759;28;20433;-46
2023/05/26 07:31:23;;;;;;;3.67;1.08;;;19.90;96.00;;;;;;5033623;28;20102;-47
2023/05/26 07:33:50;;;;;;;2.25;0.50;;;20.00;91.40;;;;;;5033904;28;20064;-45
2023/05/26 07:36:16;;;;;;;2.25;0.60;;;19.90;91.20;;;;;;5033616;28;20021;-50
2023/05/26 07:38:41;;;;;;;4.78;0.77;;;20.20;90.50;;;;;;5033854;28;20029;-44
2023/05/26 07:41:07;;;;;;;2.45;0.50;;;21.00;91.10;;;;;;5033755;28;20021;-48
2023/05/26 07:43:32;;;;;;;1.42;0.50;;;21.30;81.60;;;;;;5033335;28;20028;-51
2023/05/26 07:45:59;;;;;;;1.92;0.60;;;21.50;79.10;;;;;;5033096;28;20029;-45
2023/05/26 07:48:25;;;;;;;1.58;0.50;;;22.20;84.00;;;;;;5032270;28;20162;-53
2023/05/26 07:50:51;;;;;;;1.90;0.50;;;22.00;77.00;;;;;;5032448;28;20029;-46
2023/05/26 07:53:16;;;;;;;3.72;0.63;;;21.20;73.60;;;;;;5033028;28;20036;-43
2023/05/26 07:55:42;;;;;;;4.22;0.70;;;21.10;72.40;;;;;;5033247;28;20026;-54
2023/05/26 07:58:10;;;;;;;1.77;0.65;;;21.70;78.10;;;;;;5019984;28;20623;-51
2023/05/26 08:00:36;;;;;;;3.22;0.50;;;21.70;75.00;;;;;;5031456;28;20060;-47
2023/05/26 08:03:01;;;;;;;3.40;0.85;;;22.00;71.50;;;;;;5032800;28;20033;-46
2023/05/26 08:05:27;;;;;;;3.17;0.60;;;21.00;71.20;;;;;;5032689;28;20041;-48
2023/05/26 08:07:53;;;;;;;1.23;0.55;;;21.00;72.10;;;;;;5032817;28;20033;-42
2023/05/26 08:10:18;;;;;;;1.27;0.80;;;21.40;72.00;;;;;;5032517;28;20048;-47
2023/05/26 08:12:44;;;;;;;3.75;0.70;;;21.70;74.10;;;;;;5031228;28;20030;-51
2023/05/26 08:15:16;;;;;;;0.82;0.40;;;22.00;72.60;;;;;;5030138;28;20122;-49
2023/05/26 08:17:42;;;;;;;2.53;0.80;;;21.30;67.80;;;;;;5031086;28;20032;-49
2023/05/26 08:20:09;;;;;;;3.80;0.70;;;21.60;69.30;;;;;;5030843;28;20120;-52
2023/05/26 08:22:35;;;;;;;4.68;0.60;;;21.20;70.90;;;;;;5032434;28;20021;-54
2023/05/26 08:25:01;;;;;;;4.25;0.63;;;21.30;69.00;;;;;;5030837;28;20392;-48
2023/05/26 08:27:26;;;;;;;1.63;0.68;;;21.20;69.80;;;;;;5032953;28;20030;-56
2023/05/26 08:29:52;;;;;;;3.00;0.60;;;21.50;72.60;;;;;;5032696;28;20365;-54
2023/05/26 08:32:18;;;;;;;3.53;0.77;;;21.20;72.70;;;;;;5032782;28;20097;-46
2023/05/26 08:34:44;;;;;;;1.48;0.50;;;22.10;74.70;;;;;;5032612;28;20674;-52
2023/05/26 08:37:14;;;;;;;1.70;0.55;;;22.00;68.70;;;;;;5032289;28;20183;-52
2023/05/26 08:39:41;;;;;;;4.63;0.60;;;22.30;68.80;;;;;;5032894;28;20025;-51
2023/05/26 08:42:10;;;;;;;2.15;0.68;;;22.50;69.40;;;;;;5032715;28;20037;-56
2023/05/26 08:44:36;;;;;;;1.00;0.47;;;22.10;67.00;;;;;;5032156;28;20445;-56
2023/05/26 08:47:03;;;;;;;2.38;1.00;;;22.10;69.80;;;;;;5032434;28;20029;-45
2023/05/26 08:49:36;;;;;;;2.50;0.77;;;22.30;71.40;;;;;;5032415;28;20017;-52
2023/05/26 08:52:22;;;;;;;1.23;0.50;;;22.20;71.20;;;;;;5022244;28;20040;-51
2023/05/26 08:54:49;;;;;;;0.98;0.60;;;22.30;71.00;;;;;;5031729;28;20095;-44
2023/05/26 08:57:16;;;;;;;1.45;0.77;;;22.00;68.50;;;;;;5031787;28;20053;-51
2023/05/26 08:59:45;;;;;;;1.10;0.38;;;21.90;70.50;;;;;;5032165;28;20038;-51
2023/05/26 09:02:11;;;;;;;1.48;0.60;;;22.40;68.30;;;;;;5032087;28;20025;-47
2023/05/26 09:04:37;;;;;;;5.25;0.82;;;22.30;64.80;;;;;;5032013;28;20345;-53
2023/05/26 09:07:05;;;;;;;2.38;0.60;;;21.60;69.20;;;;;;5032127;28;20033;-48
2023/05/26 09:09:31;;;;;;;1.25;0.80;;;22.80;70.40;;;;;;5031897;28;20022;-46
2023/05/26 09:11:56;;;;;;;2.50;0.98;;;23.50;74.20;;;;;;5032035;28;20068;-43
2023/05/26 09:14:22;;;;;;;1.65;0.93;;;23.70;64.90;;;;;;5031839;28;20388;-42
2023/05/26 09:16:48;;;;;;;1.27;0.65;;;23.90;66.40;;;;;;5031867;28;20021;-47
2023/05/26 09:19:17;;;;;;;1.05;0.82;;;23.80;71.30;;;;;;5031967;28;20032;-48
2023/05/26 09:21:47;;;;;;;1.23;0.52;;;24.60;66.50;;;;;;5031826;28;20473;-52
2023/05/26 09:24:17;;;;;;;2.05;0.60;;;25.20;68.00;;;;;;5031796;28;20109;-51
2023/05/26 09:26:48;;;;;;;1.92;0.80;;;25.50;65.40;;;;;;5030792;28;20075;-48
2023/05/26 09:29:15;;;;;;;3.92;1.27;;;24.10;60.20;;;;;;5031238;28;20029;-51
2023/05/26 09:31:52;;;;;;;2.53;0.60;;;24.00;61.60;;;;;;5031539;28;20112;-53
2023/05/26 09:34:21;;;;;;;5.68;0.95;;;24.30;61.60;;;;;;5031554;28;20026;-55
2023/05/26 09:36:46;;;;;;;2.70;0.95;;;24.20;65.50;;;;;;5031620;28;20034;-44
2023/05/26 09:39:13;;;;;;;2.60;0.82;;;24.50;63.40;;;;;;5031542;28;20036;-54
2023/05/26 09:41:46;;;;;;;2.20;0.80;;;25.10;60.30;;;;;;5031580;28;20480;-49
2023/05/26 09:44:14;;;;;;;1.23;0.70;;;25.30;59.20;;;;;;5031103;28;20041;-48
2023/05/26 09:46:41;;;;;;;0.45;0.28;;;25.40;60.00;;;;;;5031283;28;20084;-53
2023/05/26 09:49:14;;;;;;;1.58;0.80;;;25.30;58.10;;;;;;5031309;28;20472;-48
2023/05/26 09:51:48;;;;;;;2.63;0.77;;;25.00;57.20;;;;;;5031388;28;20022;-45
2023/05/26 09:54:14;;;;;;;4.22;0.60;;;25.30;61.00;;;;;;5028838;28;20087;-41
2023/05/26 09:56:53;;;;;;;0.55;0.47;;;25.30;60.30;;;;;;5021662;28;20025;-51
2023/05/26 09:59:19;;;;;;;;;;;25.50;59.40;;;;;;5021760;28;20060;-49
2023/05/26 10:01:46;;;;;;;1.02;0.60;;;25.60;60.00;;;;;;5030787;28;19931;-46
2023/05/26 10:04:14;;;;;;;1.85;1.02;;;25.50;58.30;;;;;;5030795;28;20050;-43
2023/05/26 10:06:41;;;;;;;1.13;0.57;;;26.10;62.90;;;;;;5030865;28;20087;-44
2023/05/26 10:09:07;;;;;;;2.83;0.55;;;25.70;56.40;;;;;;5030974;28;20087;-45
2023/05/26 10:11:39;;;;;;;2.65;0.60;;;26.00;60.80;;;;;;5030986;28;20029;-47
2023/05/26 10:14:05;;;;;;;2.55;0.80;;;25.90;57.40;;;;;;5031158;28;20029;-57
2023/05/26 10:16:32;;;;;;;2.40;0.98;;;26.20;60.80;;;;;;5030526;28;20071;-51
2023/05/26 10:18:58;;;;;;;2.67;0.80;;;26.10;58.60;;;;;;5030954;28;20104;-45
2023/05/26 10:21:28;;;;;;;2.28;0.70;;;25.90;57.70;;;;;;5029493;28;20479;-48
2023/05/26 10:24:04;;;;;;;1.38;0.95;;;25.70;55.40;;;;;;5030802;28;20385;-48
2023/05/26 10:26:40;;;;;;;2.00;0.80;;;25.90;59.90;;;;;;5030721;28;20108;-49
2023/05/26 10:29:07;;;;;;;2.70;0.65;;;25.60;54.80;;;;;;5028751;28;21128;-51
2023/05/26 10:31:35;;;;;;;2.30;0.88;;;25.10;58.80;;;;;;5026068;28;20392;-47
2023/05/26 10:34:14;;;;;;;2.47;0.60;;;24.30;61.20;;;;;;5030536;28;20117;-47
2023/05/26 10:36:41;;;;;;;2.58;1.30;;;24.60;60.00;;;;;;5025098;28;20053;-51
2023/05/26 10:39:11;;;;;;;3.42;1.15;;;24.80;59.70;;;;;;5030353;28;20038;-51
2023/05/26 10:41:50;;;;;;;2.92;1.30;;;24.60;57.30;;;;;;5030768;28;20026;-46
2023/05/26 10:44:43;;;;;;;7.93;1.50;;;25.10;64.20;;;;;;5030168;28;20468;-41
2023/05/26 10:47:14;;;;;;;3.50;0.82;;;25.20;59.40;;;;;;5030690;28;20104;-45
2023/05/26 10:49:40;;;;;;;1.95;0.77;;;24.80;59.90;;;;;;5030474;28;20026;-44
2023/05/26 10:52:13;;;;;;;4.45;0.70;;;25.30;62.40;;;;;;5030646;28;20076;-44
2023/05/26 10:54:40;;;;;;;3.78;0.93;;;25.30;56.20;;;;;;5030387;28;20040;-55
2023/05/26 10:57:26;;;;;;;3.45;1.00;;;25.60;59.40;;;;;;5030783;28;20033;-50
2023/05/26 10:59:53;;;;;;;2.45;0.82;;;25.10;56.30;;;;;;5030300;28;20029;-52
2023/05/26 11:02:21;;;;;;;1.23;0.50;;;25.50;60.30;;;;;;5030536;28;20025;-53
2023/05/26 11:04:48;;;;;;;2.10;0.93;;;25.60;55.80;;;;;;5029875;28;20049;-54
2023/05/26 11:07:26;;;;;;;1.30;0.60;;;26.10;60.70;;;;;;5029905;28;20037;-46
2023/05/26 11:09:57;;;;;;;2.00;0.98;;;26.40;56.70;;;;;;5030408;28;20107;-42
2023/05/26 11:12:23;;;;;;;1.33;0.60;;;26.30;54.70;;;;;;5030525;28;20041;-52
2023/05/26 11:14:49;;;;;;;2.90;0.65;;;25.90;57.10;;;;;;5030239;28;20416;-50
2023/05/26 11:17:18;;;;;;;1.63;0.65;;;25.50;53.90;;;;;;5030191;28;20025;-45
2023/05/26 11:19:58;;;;;;;2.42;0.90;;;25.50;54.90;;;;;;5028783;28;20599;-43
2023/05/26 11:22:25;;;;;;;1.38;0.70;;;25.90;58.30;;;;;;5030154;28;20059;-47
2023/05/26 11:24:51;;;;;;;1.33;0.70;;;25.30;54.00;;;;;;5030020;28;20114;-48
2023/05/26 11:27:17;;;;;;;3.53;0.60;;;25.00;54.80;;;;;;5030166;28;20040;-51
2023/05/26 11:29:46;;;;;;;2.75;0.80;;;25.00;56.80;;;;;;5029792;28;20160;-50
2023/05/26 11:32:13;;;;;;;1.85;0.80;;;24.80;58.80;;;;;;5030050;28;20017;-50
2023/05/26 11:34:38;;;;;;;1.45;0.70;;;24.80;57.20;;;;;;5030200;28;20021;-47
2023/05/26 11:37:07;;;;;;;2.60;0.73;;;24.90;57.40;;;;;;5029840;28;20033;-52
2023/05/26 11:39:34;;;;;;;2.35;0.80;;;24.80;59.00;;;;;;5023331;28;20527;-54
2023/05/26 11:42:10;;;;;;;1.85;0.68;;;25.10;56.10;;;;;;5022485;28;20026;-44
2023/05/26 11:44:36;;;;;;;4.65;0.75;;;25.20;56.10;;;;;;5028212;28;20033;-47
2023/05/26 11:47:02;;;;;;;2.22;0.85;;;25.20;54.20;;;;;;5028905;28;20037;-42
2023/05/26 11:49:27;;;;;;;2.70;0.90;;;24.90;56.20;;;;;;5030290;28;20056;-53
2023/05/26 11:51:53;;;;;;;2.08;0.80;;;25.00;60.20;;;;;;5033062;28;20415;-51
2023/05/26 11:54:20;;;;;;;3.10;0.82;;;25.10;59.20;;;;;;5033368;28;20022;-46
2023/05/26 11:56:47;;;;;;;1.17;0.70;;;24.80;56.30;;;;;;5033391;28;20025;-42
2023/05/26 11:59:20;;;;;;;0.77;0.45;;;24.60;58.40;;;;;;5033257;28;20100;-42
2023/05/26 12:01:47;;;;;;;2.97;0.63;;;24.40;55.50;;;;;;5032346;28;20480;-46
2023/05/26 12:04:13;;;;;;;1.52;0.85;;;24.30;54.60;;;;;;5025541;28;20446;-43
2023/05/26 12:06:43;;;;;;;1.73;1.00;;;24.40;56.40;;;;;;5025309;28;20116;-49
2023/05/26 12:09:22;;;;;;;1.42;0.73;;;24.20;57.00;;;;;;5032853;28;20516;-51
2023/05/26 12:11:51;;;;;;;0.80;0.60;;;24.50;61.10;;;;;;5026732;28;20119;-48
2023/05/26 12:14:17;;;;;;;1.40;0.70;;;24.40;56.10;;;;;;5033049;28;20044;-42
2023/05/26 12:16:47;;;;;;;3.30;0.52;;;24.20;57.00;;;;;;5032742;28;20345;-49
2023/05/26 12:19:17;;;;;;;3.53;0.50;;;24.20;56.60;;;;;;5032789;28;20117;-52
2023/05/26 12:21:52;;;;;;;2.72;0.70;;;24.10;57.10;;;;;;5032708;28;20021;-44
2023/05/26 12:24:37;;;;;;;3.60;0.75;;;24.00;56.20;;;;;;5032773;28;20483;-47
2023/05/26 12:27:09;;;;;;;1.13;0.60;;;24.00;55.00;;;;;;5030837;28;20075;-51
2023/05/26 12:29:41;;;;;;;2.47;0.60;;;23.50;52.90;;;;;;5029509;28;20037;-45
2023/05/26 12:32:10;;;;;;;1.02;0.65;;;23.00;53.70;;;;;;5028027;28;20676;-51
2023/05/26 12:34:38;;;;;;;2.47;0.73;;;23.00;54.70;;;;;;5027911;28;20491;-45
2023/05/26 12:37:04;;;;;;;3.17;0.90;;;22.70;54.50;;;;;;5032520;28;20056;-44
2023/05/26 12:39:31;;;;;;;2.22;0.90;;;22.60;54.50;;;;;;5032151;28;20400;-49
2023/05/26 12:41:57;;;;;;;1.90;0.50;;;22.50;56.60;;;;;;5032525;28;20022;-42
2023/05/26 12:44:22;;;;;;;2.83;0.63;;;22.70;55.40;;;;;;5031342;28;20151;-44
2023/05/26 12:46:49;;;;;;;0.63;0.35;;;22.40;53.40;;;;;;5031549;28;20026;-51
2023/05/26 12:49:15;;;;;;;1.73;0.77;;;22.20;56.20;;;;;;5031737;28;20033;-52